createdAt,value
2022-10-04T00:00:28.531Z,5.6
2022-10-04T00:02:29.999Z,7.3
2022-10-04T00:06:36.102Z,7.7
2022-10-04T00:08:37.520Z,14.1
2022-10-04T00:10:38.974Z,7.2
2022-10-04T00:12:40.389Z,13.6
2022-10-04T00:16:44.031Z,10.3
2022-10-04T00:18:48.703Z,8.2
2022-10-04T00:22:51.590Z,15.5
2022-10-04T00:24:53.021Z,11.2
2022-10-04T00:26:54.482Z,19.9
2022-10-04T00:28:55.876Z,15.3
2022-10-04T00:30:57.360Z,7.3
2022-10-04T00:33:02.071Z,10.6
2022-10-04T00:35:03.515Z,21.5
2022-10-04T00:37:04.930Z,17.8
2022-10-04T00:39:06.367Z,19.9
2022-10-04T00:41:07.801Z,13.4
2022-10-04T00:43:09.216Z,13.2
2022-10-04T00:45:10.663Z,10.8
2022-10-04T00:47:15.405Z,13
2022-10-04T00:49:16.820Z,6.8
2022-10-04T00:51:18.256Z,6.1
2022-10-04T00:52:20.619Z,15
2022-10-04T00:54:22.071Z,13.2
2022-10-04T01:00:29.697Z,19.6
2022-10-04T01:08:35.459Z,20.3
2022-10-04T01:10:36.858Z,16.3
2022-10-04T01:12:38.288Z,17
2022-10-04T01:14:43.028Z,10
2022-10-04T01:16:44.466Z,21.5
2022-10-04T01:18:45.924Z,13.2
2022-10-04T01:20:47.324Z,6.8
2022-10-04T01:22:48.756Z,25.2
2022-10-04T01:24:50.187Z,12.5
2022-10-04T01:26:51.658Z,19.1
2022-10-04T01:28:57.000Z,16.5
2022-10-04T01:31:00.014Z,15.4
2022-10-04T01:33:02.411Z,9.7
2022-10-04T01:35:03.840Z,21
2022-10-04T01:37:05.260Z,21.9
2022-10-04T01:39:06.701Z,22.4
2022-10-04T01:41:08.998Z,13.7
2022-10-04T01:43:14.811Z,17.6
2022-10-04T01:45:17.291Z,19.5
2022-10-04T01:47:19.715Z,9
2022-10-04T01:48:23.001Z,20.8
2022-10-04T01:50:24.416Z,12.3
2022-10-04T01:52:26.644Z,20.1
2022-10-04T01:54:28.359Z,11.9
2022-10-04T01:56:33.074Z,16.3
2022-10-04T02:00:36.769Z,14
2022-10-04T02:02:38.203Z,10.6
2022-10-04T02:04:39.741Z,16.5
2022-10-04T02:06:42.009Z,7.3
2022-10-04T02:10:48.146Z,16
2022-10-04T02:12:49.597Z,15.9
2022-10-04T02:14:51.030Z,11.1
2022-10-04T02:20:55.310Z,11.5
2022-10-04T02:22:56.734Z,10.6
2022-10-04T02:25:01.471Z,21.4
2022-10-04T02:27:02.940Z,10.2
2022-10-04T02:29:04.316Z,13.9
2022-10-04T02:31:05.836Z,12.4
2022-10-04T02:33:07.245Z,15.3
2022-10-04T02:35:08.661Z,16.8
2022-10-04T02:37:10.092Z,22.6
2022-10-04T02:39:14.856Z,19.6
2022-10-04T02:41:16.243Z,15.8
2022-10-04T02:43:17.698Z,16.5
2022-10-04T02:45:34.616Z,21.2
2022-10-04T02:47:36.033Z,14.1
2022-10-04T02:49:37.478Z,28.1
2022-10-04T02:51:42.409Z,19.5
2022-10-04T02:55:45.084Z,12.5
2022-10-04T02:57:46.488Z,14.5
2022-10-04T02:59:47.925Z,13.6
2022-10-04T03:01:49.426Z,17.7
2022-10-04T03:05:55.528Z,21
2022-10-04T03:07:56.934Z,18.7
2022-10-04T03:09:58.391Z,11.4
2022-10-04T03:11:59.814Z,16.5
2022-10-04T03:14:01.260Z,11.1
2022-10-04T03:16:02.791Z,9.9
2022-10-04T03:18:04.106Z,19.6
2022-10-04T03:20:08.812Z,27
2022-10-04T03:22:10.265Z,16.7
2022-10-04T03:24:11.678Z,20.2
2022-10-04T03:26:13.122Z,20.1
2022-10-04T03:38:24.984Z,21.2
2022-10-04T03:39:27.345Z,29
2022-10-04T03:41:28.750Z,23.6
2022-10-04T03:43:31.168Z,28.5
2022-10-04T03:45:32.782Z,30.4
2022-10-04T03:47:37.369Z,16.6
2022-10-04T03:49:38.765Z,17.7
2022-10-04T03:51:40.510Z,21.3
2022-10-04T03:53:41.635Z,15.5
2022-10-04T03:55:43.054Z,17.2
2022-10-04T03:57:44.461Z,28.1
2022-10-04T03:59:45.896Z,20.8
2022-10-04T04:01:50.657Z,21.4
2022-10-04T04:03:52.080Z,24.4
2022-10-04T04:05:53.481Z,19.3
2022-10-04T04:07:54.926Z,23.4
2022-10-04T04:09:56.342Z,18.6
2022-10-04T04:11:57.767Z,18
2022-10-04T04:13:59.226Z,33.3
2022-10-04T04:18:05.409Z,16.8
2022-10-04T04:20:07.728Z,20.8
2022-10-04T04:22:08.260Z,19.8
2022-10-04T04:24:09.679Z,28.4
2022-10-04T04:26:11.124Z,26.2
2022-10-04T04:28:12.608Z,17.6
2022-10-04T04:30:17.268Z,23.4
2022-10-04T04:32:18.660Z,20
2022-10-04T04:34:20.126Z,23.9
2022-10-04T04:37:23.874Z,15.1
2022-10-04T04:41:26.727Z,26.5
2022-10-04T04:45:32.940Z,34.3
2022-10-04T04:47:34.323Z,39.6
2022-10-04T04:51:37.161Z,23.7
2022-10-04T04:53:38.603Z,19.1
2022-10-04T04:59:47.481Z,17.9
2022-10-04T05:07:53.155Z,36.9
2022-10-04T05:14:00.714Z,32.8
2022-10-04T05:16:02.213Z,38.2
2022-10-04T05:18:03.549Z,26
2022-10-04T05:20:04.982Z,33.1
2022-10-04T05:22:06.421Z,39.6
2022-10-04T05:24:07.825Z,31.4
2022-10-04T05:26:12.530Z,55
2022-10-04T05:28:14.042Z,31.7
2022-10-04T05:30:15.391Z,28.9
2022-10-04T05:31:17.781Z,33.6
2022-10-04T05:33:19.192Z,28.1
2022-10-04T05:35:20.631Z,22.5
2022-10-04T05:37:22.052Z,26.6
2022-10-04T05:39:26.737Z,33
2022-10-04T05:41:31.415Z,24.8
2022-10-04T05:43:29.593Z,24.8
2022-10-04T05:45:31.081Z,19.8
2022-10-04T05:47:32.433Z,21.9
2022-10-04T05:49:33.880Z,25.9
2022-10-04T05:51:35.540Z,29.3
2022-10-04T05:53:40.020Z,28.9
2022-10-04T05:55:41.450Z,19
2022-10-04T05:57:42.847Z,28.8
2022-10-04T05:59:44.268Z,19.9
2022-10-04T06:01:46.142Z,19.1
2022-10-04T06:03:47.133Z,20.5
2022-10-04T06:05:48.528Z,29.2
2022-10-04T06:07:53.267Z,22.3
2022-10-04T06:09:54.683Z,28.3
2022-10-04T06:11:56.095Z,25
2022-10-04T06:13:57.498Z,34.7
2022-10-04T06:15:58.947Z,20.9
2022-10-04T06:18:00.386Z,27.4
2022-10-04T06:20:01.810Z,23.4
2022-10-04T06:22:06.691Z,21.2
2022-10-04T06:24:07.958Z,30.1
2022-10-04T06:26:09.384Z,38.2
2022-10-04T06:28:30.098Z,30.6
2022-10-04T06:30:31.473Z,29.5
2022-10-04T06:32:32.868Z,20.8
2022-10-04T06:34:37.578Z,24
2022-10-04T06:36:39.044Z,26.6
2022-10-04T06:38:40.542Z,25.6
2022-10-04T06:40:41.963Z,24.5
2022-10-04T06:42:43.368Z,22.3
2022-10-04T06:44:46.515Z,26.8
2022-10-04T06:48:50.942Z,23.7
2022-10-04T06:50:52.404Z,17.9
2022-10-04T06:52:53.810Z,25
2022-10-04T06:54:55.229Z,29.8
2022-10-04T06:56:56.645Z,24.2
2022-10-04T06:58:58.060Z,26.1
2022-10-04T07:00:59.571Z,31.1
2022-10-04T07:07:07.072Z,24.9
2022-10-04T07:09:08.469Z,25.4
2022-10-04T07:11:12.326Z,19.6
2022-10-04T07:13:12.499Z,19.4
2022-10-04T07:15:12.733Z,17.4
2022-10-04T07:17:17.455Z,27.7
2022-10-04T07:19:18.859Z,28.7
2022-10-04T07:21:21.857Z,23.5
2022-10-04T07:22:24.150Z,30.8
2022-10-04T07:24:25.598Z,27.9
2022-10-04T07:26:27.035Z,28.1
2022-10-04T07:28:28.607Z,35.6
2022-10-04T07:30:33.391Z,25.9
2022-10-04T07:32:34.635Z,19.5
2022-10-04T07:34:36.028Z,21.8
2022-10-04T07:36:37.465Z,24.2
2022-10-04T07:38:38.889Z,25.3
2022-10-04T07:40:40.305Z,21
2022-10-04T07:42:41.746Z,21.7
2022-10-04T07:44:46.497Z,40.5
2022-10-04T07:46:47.891Z,15
2022-10-04T07:48:49.338Z,21.4
2022-10-04T07:50:50.758Z,16.6
2022-10-04T07:52:52.155Z,21.7
2022-10-04T07:56:55.042Z,22.5
2022-10-04T08:03:02.670Z,24
2022-10-04T08:09:07.788Z,12.4
2022-10-04T08:17:16.768Z,12.7
2022-10-04T08:18:19.129Z,15.9
2022-10-04T08:20:20.566Z,14
2022-10-04T08:22:21.957Z,12.5
2022-10-04T08:26:28.108Z,12.6
2022-10-04T08:28:29.564Z,10.8
2022-10-04T08:30:30.907Z,14.9
2022-10-04T08:34:33.775Z,15.3
2022-10-04T08:40:41.355Z,17.9
2022-10-04T08:48:47.027Z,9.4
2022-10-04T08:50:48.412Z,11.7
2022-10-04T08:52:49.864Z,12.4
2022-10-04T08:54:54.572Z,10.5
2022-10-04T09:00:58.791Z,8.6
2022-10-04T09:03:00.278Z,16.7
2022-10-04T09:05:01.627Z,21.7
2022-10-04T09:07:03.039Z,12.9
2022-10-04T09:09:07.769Z,11.3
2022-10-04T09:11:09.193Z,17.3
2022-10-04T09:13:10.593Z,7.3
2022-10-04T09:14:12.954Z,8.4
2022-10-04T09:16:14.456Z,6
2022-10-04T09:18:15.765Z,8.7
2022-10-04T09:20:37.353Z,6.9
2022-10-04T09:22:21.897Z,6
2022-10-04T09:30:27.530Z,10
2022-10-04T09:32:28.918Z,2.6
2022-10-04T09:38:36.449Z,1.4
2022-10-04T09:40:37.840Z,4.8
2022-10-04T09:42:39.206Z,8.4
2022-10-04T09:44:40.602Z,7.5
2022-10-04T09:46:42.370Z,5.6
2022-10-04T09:48:43.376Z,12.3
2022-10-04T09:50:48.082Z,9.8
2022-10-04T09:52:49.480Z,8.4
2022-10-04T09:54:50.893Z,4.1
2022-10-04T09:56:52.290Z,4.7
2022-10-04T10:00:55.128Z,4.2
2022-10-04T10:02:56.611Z,6.2
2022-10-04T10:05:01.219Z,7.7
2022-10-04T10:11:26.992Z,8.5
2022-10-04T10:13:31.924Z,14
2022-10-04T10:15:29.841Z,10.7
2022-10-04T10:17:34.492Z,14.4
2022-10-04T10:19:35.908Z,8.1
2022-10-04T10:21:37.290Z,10.6
2022-10-04T10:23:38.719Z,10.9
2022-10-04T10:25:40.328Z,10
2022-10-04T10:27:41.524Z,6.4
2022-10-04T10:29:42.906Z,6.8
2022-10-04T10:31:47.991Z,11.4
2022-10-04T10:33:49.049Z,10.2
2022-10-04T10:37:51.827Z,1.9
2022-10-04T10:41:54.640Z,7.3
2022-10-04T10:43:56.021Z,8.1
2022-10-04T10:46:00.761Z,8.2
2022-10-04T10:48:02.098Z,4.3
2022-10-04T10:50:03.557Z,5.6
2022-10-04T10:52:04.943Z,5.8
2022-10-04T10:54:06.324Z,4.4
2022-10-04T10:56:07.696Z,9.3
2022-10-04T10:58:09.100Z,7.3
2022-10-04T11:00:13.855Z,8.4
2022-10-04T11:05:18.990Z,5.2
2022-10-04T11:07:20.326Z,10.8
2022-10-04T11:15:29.223Z,9.7
2022-10-04T11:17:30.613Z,12.9
2022-10-04T11:19:32.035Z,4.7
2022-10-04T11:21:33.413Z,5
2022-10-04T11:23:34.834Z,8.2
2022-10-04T11:25:36.199Z,10.4
2022-10-04T11:27:40.780Z,3.6
2022-10-04T11:29:42.106Z,6.9
2022-10-04T11:31:43.511Z,4.5
2022-10-04T11:33:44.857Z,8.6
2022-10-04T11:35:46.274Z,4.4
2022-10-04T11:37:47.605Z,9
2022-10-04T11:39:48.973Z,6.4
2022-10-04T11:41:53.649Z,2.6
2022-10-04T11:43:55.003Z,3.8
2022-10-04T11:45:56.283Z,6.2
2022-10-04T11:47:57.574Z,6.8
2022-10-04T11:49:58.990Z,4.3
2022-10-04T11:52:02.538Z,6.1
2022-10-04T11:54:01.742Z,12
2022-10-04T11:56:06.214Z,5.8
2022-10-04T11:58:11.730Z,2.9
2022-10-04T12:00:09.052Z,9.9
2022-10-04T12:01:11.271Z,15.4
2022-10-04T12:03:12.631Z,6.1
2022-10-04T12:05:13.942Z,3.4
2022-10-04T12:07:15.382Z,6.1
2022-10-04T12:09:19.907Z,4.9
2022-10-04T12:11:21.194Z,6.4
2022-10-04T12:13:22.571Z,5.4
2022-10-04T12:15:23.835Z,4.9
2022-10-04T12:17:25.115Z,5.3
2022-10-04T12:19:26.420Z,3
2022-10-04T12:21:27.822Z,3.9
2022-10-04T12:23:32.202Z,3.8
2022-10-04T12:25:34.437Z,2.5
2022-10-04T12:27:35.765Z,1.9
2022-10-04T12:29:37.118Z,11.8
2022-10-04T12:31:38.520Z,2.9
2022-10-04T12:33:39.796Z,6.8
2022-10-04T12:35:41.159Z,6.1
2022-10-04T12:37:45.767Z,7.4
2022-10-04T12:43:49.659Z,6.6
2022-10-04T12:45:51.087Z,2.5
2022-10-04T12:47:52.394Z,2.8
2022-10-04T12:51:58.272Z,3.4
2022-10-04T12:53:59.568Z,8.5
2022-10-04T12:56:00.949Z,13
2022-10-04T12:57:03.414Z,3.4
2022-10-04T12:59:04.555Z,3.3
2022-10-04T13:03:07.271Z,6.3
2022-10-04T13:05:11.830Z,23.1
2022-10-04T13:07:13.236Z,15.4
2022-10-04T13:13:18.911Z,10.7
2022-10-04T13:15:20.270Z,9.7
2022-10-04T13:17:30.084Z,7.7
2022-10-04T13:19:26.745Z,6.1
2022-10-04T13:21:28.059Z,3.9
2022-10-04T13:23:29.443Z,2.2
2022-10-04T13:25:30.809Z,4.2
2022-10-04T13:27:32.214Z,3.1
2022-10-04T13:29:33.378Z,3.4
2022-10-04T13:31:34.923Z,11.2
2022-10-04T13:33:39.165Z,3.4
2022-10-04T13:35:40.502Z,7.5
2022-10-04T13:37:41.817Z,3
2022-10-04T13:39:43.190Z,2.8
2022-10-04T13:41:44.838Z,4.1
2022-10-04T13:43:45.833Z,2.9
2022-10-04T13:45:47.256Z,7.2
2022-10-04T13:47:51.806Z,4.9
2022-10-04T13:49:53.134Z,3.8
2022-10-04T13:51:54.435Z,1.2
2022-10-04T13:54:17.056Z,6.2
2022-10-04T13:56:18.423Z,5.2
2022-10-04T13:58:19.771Z,4.5
2022-10-04T14:00:24.369Z,2.3
2022-10-04T14:02:25.657Z,6.2
2022-10-04T14:04:27.034Z,4.4
2022-10-04T14:06:28.333Z,5.7
2022-10-04T14:08:29.658Z,1.2
2022-10-04T14:10:31.012Z,2.9
2022-10-04T14:12:32.342Z,3
2022-10-04T14:14:36.974Z,4.9
2022-10-04T14:16:38.369Z,3.4
2022-10-04T14:18:39.518Z,3.4
2022-10-04T14:20:40.886Z,1.6
2022-10-04T14:22:42.145Z,1.8
2022-10-04T14:24:43.425Z,2
2022-10-04T14:26:44.917Z,4.2
2022-10-04T14:28:49.164Z,3.8
2022-10-04T14:30:50.463Z,2.3
2022-10-04T14:32:51.747Z,1.8
2022-10-04T14:36:54.508Z,3.8
2022-10-04T14:40:57.131Z,3.5
2022-10-04T14:48:06.787Z,6.7
2022-10-04T14:50:08.139Z,2.4
2022-10-04T14:52:09.418Z,6.1
2022-10-04T14:54:10.721Z,3.6
2022-10-04T14:56:15.314Z,4.9
2022-10-04T14:58:16.603Z,2.9
2022-10-04T15:00:17.971Z,5.1
2022-10-04T15:02:19.240Z,12.4
2022-10-04T15:04:20.593Z,2.4
2022-10-04T15:06:21.823Z,3.2
2022-10-04T15:08:23.092Z,9.7
2022-10-04T15:10:27.711Z,4.3
2022-10-04T15:12:45.900Z,5.9
2022-10-04T15:14:30.316Z,3.3
2022-10-04T15:16:31.779Z,2.5
2022-10-04T15:18:32.975Z,4.9
2022-10-04T15:20:34.271Z,6.1
2022-10-04T15:22:35.573Z,3.2
2022-10-04T15:26:41.638Z,3.6
2022-10-04T15:28:42.943Z,11.4
2022-10-04T15:30:44.279Z,3.2
2022-10-04T15:32:45.504Z,13.3
2022-10-04T15:38:52.840Z,11.8
2022-10-04T15:40:54.252Z,14.7
2022-10-04T15:42:55.626Z,8.7
2022-10-04T15:48:00.543Z,4.8
2022-10-04T15:50:01.841Z,5.5
2022-10-04T15:52:06.426Z,4.7
2022-10-04T15:54:07.753Z,5
2022-10-04T15:56:09.110Z,3
2022-10-04T15:58:10.507Z,3.1
2022-10-04T16:00:11.865Z,4.5
2022-10-04T16:02:13.160Z,2.3
2022-10-04T16:04:14.426Z,4.2
2022-10-04T16:06:19.099Z,3.7
2022-10-04T16:08:20.390Z,4.2
2022-10-04T16:10:21.806Z,4.8
2022-10-04T16:12:23.213Z,8.4
2022-10-04T16:14:24.621Z,8
2022-10-04T16:16:26.146Z,7.9
2022-10-04T16:18:27.413Z,4
2022-10-04T16:20:32.139Z,8.3
2022-10-04T16:22:33.583Z,5.4
2022-10-04T16:24:34.950Z,2.6
2022-10-04T16:26:36.363Z,5.9
2022-10-04T16:34:45.349Z,6.5
2022-10-04T16:36:47.156Z,4.2
2022-10-04T16:39:50.497Z,3.2
2022-10-04T16:41:51.948Z,7.4
2022-10-04T16:43:53.358Z,3.6
2022-10-04T16:45:54.837Z,7.1
2022-10-04T16:47:59.488Z,3.4
2022-10-04T16:50:00.952Z,3.2
2022-10-04T16:52:02.351Z,2.9
2022-10-04T16:54:03.771Z,2.1
2022-10-04T16:56:05.162Z,8.6
2022-10-04T16:58:06.623Z,2.9
2022-10-04T17:00:08.052Z,4.4
2022-10-04T17:02:12.791Z,3.3
2022-10-04T17:04:14.285Z,4.9
2022-10-04T17:06:15.615Z,3.7
2022-10-04T17:08:17.056Z,5.2
2022-10-04T17:10:18.495Z,14.2
2022-10-04T17:12:19.909Z,3.8
2022-10-04T17:14:21.355Z,5.6
2022-10-04T17:20:28.923Z,16.1
2022-10-04T17:22:30.316Z,3.8
2022-10-04T17:24:31.740Z,3.9
2022-10-04T17:26:33.185Z,7
2022-10-04T17:30:39.441Z,7.3
2022-10-04T17:32:40.821Z,5.5
2022-10-04T17:34:42.258Z,11.3
2022-10-04T17:37:03.130Z,5.5
2022-10-04T17:39:04.556Z,3.1
2022-10-04T17:43:10.719Z,5.7
2022-10-04T17:45:12.127Z,6.8
2022-10-04T17:47:14.735Z,7.6
2022-10-04T17:49:14.996Z,12.7
2022-10-04T17:51:16.450Z,5.7
2022-10-04T17:53:17.853Z,12.4
2022-10-04T17:55:19.315Z,5.6
2022-10-04T17:57:24.037Z,5.4
2022-10-04T17:59:30.733Z,5.3
2022-10-04T18:01:26.957Z,5.8
2022-10-04T18:03:28.322Z,10.4
2022-10-04T18:05:29.764Z,6.7
2022-10-04T18:07:31.250Z,10.7
2022-10-04T18:09:32.709Z,13.3
2022-10-04T18:11:38.486Z,8.5
2022-10-04T18:13:39.959Z,11.4
2022-10-04T18:15:41.426Z,7.4
2022-10-04T18:17:42.792Z,7
2022-10-04T18:19:44.234Z,16.7
2022-10-04T18:21:45.695Z,5.2
2022-10-04T18:23:47.121Z,8.6
2022-10-04T18:25:51.862Z,17.4
2022-10-04T18:27:53.350Z,7.2
2022-10-04T18:29:54.738Z,6.4
2022-10-04T18:30:57.179Z,7.1
2022-10-04T18:32:58.517Z,12.8
2022-10-04T18:34:59.965Z,6
2022-10-04T18:37:01.398Z,9
2022-10-04T18:39:06.124Z,7.1
2022-10-04T18:43:09.018Z,6.8
2022-10-04T18:45:10.430Z,6.7
2022-10-04T18:47:11.826Z,16.2
2022-10-04T18:49:13.263Z,5.9
2022-10-04T18:51:14.703Z,10.5
2022-10-04T18:53:19.415Z,4.4
2022-10-04T18:55:20.836Z,12.4
2022-10-04T19:03:28.092Z,7.2
2022-10-04T19:05:29.502Z,5.3
2022-10-04T19:07:34.250Z,13
2022-10-04T19:13:38.546Z,6.1
2022-10-04T19:15:39.972Z,8.1
2022-10-04T19:26:52.794Z,16.2
2022-10-04T19:28:54.242Z,6.4
2022-10-04T19:30:55.644Z,7.3
2022-10-04T19:32:57.069Z,8.5
2022-10-04T19:43:07.520Z,10.1
2022-10-04T19:45:09.290Z,10.7
2022-10-04T19:47:10.376Z,5.5
2022-10-04T19:49:15.131Z,10
2022-10-04T19:51:16.581Z,4.2
2022-10-04T19:53:17.979Z,4.1
2022-10-04T19:55:19.393Z,7.5
2022-10-04T19:57:20.814Z,6.3
2022-10-04T19:59:22.249Z,6.1
2022-10-04T20:01:23.696Z,7.1
2022-10-04T20:03:28.383Z,5.6
2022-10-04T20:05:29.824Z,2.8
2022-10-04T20:07:31.223Z,6.2
2022-10-04T20:09:32.677Z,5.5
2022-10-04T20:11:34.055Z,4.7
2022-10-04T20:13:35.502Z,4.2
2022-10-04T20:15:36.910Z,3.9
2022-10-04T20:17:41.581Z,3.7
2022-10-04T20:19:42.987Z,7.5
2022-10-04T20:21:44.392Z,6.1
2022-10-04T20:22:46.758Z,8.3
2022-10-04T20:24:48.182Z,3.4
2022-10-04T20:26:53.400Z,4.7
2022-10-04T20:28:51.041Z,3.5
2022-10-04T20:30:55.751Z,6.8
2022-10-04T20:32:57.176Z,7.5
2022-10-04T20:34:58.589Z,6.9
2022-10-04T20:37:00.025Z,5
2022-10-04T20:39:01.428Z,4.9
2022-10-04T20:41:02.856Z,9.1
2022-10-04T20:43:07.246Z,3.3
2022-10-04T20:45:08.961Z,5
2022-10-04T20:47:10.380Z,3.6
2022-10-04T20:49:11.806Z,7.9
2022-10-04T20:51:13.257Z,4.7
2022-10-04T20:53:14.616Z,11.5
2022-10-04T20:55:16.037Z,4.7
2022-10-04T20:57:17.431Z,4.8
2022-10-04T20:59:22.199Z,4.5
2022-10-04T21:01:23.617Z,7.4
2022-10-04T21:03:24.987Z,5.4
2022-10-04T21:05:26.399Z,5
2022-10-04T21:07:27.816Z,6.5
2022-10-04T21:09:29.255Z,6.5
2022-10-04T21:11:30.645Z,7.5
2022-10-04T21:13:35.379Z,6.3
2022-10-04T21:15:36.775Z,5.5
2022-10-04T21:17:38.188Z,5
2022-10-04T21:20:01.167Z,4.4
2022-10-04T21:22:02.595Z,9.4
2022-10-04T21:26:08.724Z,4.6
2022-10-04T21:28:10.180Z,12.6
2022-10-04T21:32:13.068Z,4.1
2022-10-04T21:34:28.909Z,5.2
2022-10-04T21:36:15.808Z,9.4
2022-10-04T21:38:17.209Z,12
2022-10-04T21:40:21.920Z,8.3
2022-10-04T21:42:23.350Z,12.3
2022-10-04T21:44:24.766Z,5.4
2022-10-04T21:46:26.207Z,6.9
2022-10-04T21:48:27.617Z,5.1
2022-10-04T21:50:29.004Z,4
2022-10-04T21:52:30.422Z,7.5
2022-10-04T21:54:35.173Z,4.3
2022-10-04T21:56:36.564Z,3.6
2022-10-04T22:00:40.090Z,9.4
2022-10-04T22:02:41.500Z,7.2
2022-10-04T22:04:43.335Z,5.7
2022-10-04T22:06:45.938Z,7.2
2022-10-04T22:08:51.721Z,15.4
2022-10-04T22:10:57.592Z,11.4
2022-10-04T22:12:55.567Z,7.2
2022-10-04T22:13:57.903Z,9.1
2022-10-04T22:15:59.498Z,7.7
2022-10-04T22:18:00.766Z,11.7
2022-10-04T22:20:02.168Z,5.9
2022-10-04T22:22:06.893Z,8.8
2022-10-04T22:24:08.306Z,17.1
2022-10-04T22:26:09.755Z,5.3
2022-10-04T22:28:11.170Z,9.4
2022-10-04T22:30:13.390Z,7.3
2022-10-04T22:34:16.255Z,10.1
2022-10-04T22:36:20.970Z,13.5
2022-10-04T22:38:22.369Z,7.7
2022-10-04T22:40:24.801Z,12.2
2022-10-04T22:42:26.833Z,12.5
2022-10-04T22:44:28.251Z,5.1
2022-10-04T22:46:29.671Z,4.6
2022-10-04T22:48:31.103Z,8.2
2022-10-04T22:50:35.824Z,9.7
2022-10-04T22:52:37.235Z,9.6
2022-10-04T22:54:38.949Z,4.8
2022-10-04T22:56:40.130Z,6.4
2022-10-04T22:58:41.523Z,5.1
2022-10-04T23:00:42.931Z,6.9
2022-10-04T23:02:44.415Z,16.1
2022-10-04T23:04:49.173Z,8
2022-10-04T23:06:50.493Z,5.4
2022-10-04T23:08:51.907Z,9.6
2022-10-04T23:11:55.701Z,9.8
2022-10-04T23:13:57.136Z,3.8
2022-10-04T23:20:04.714Z,7.6
2022-10-04T23:22:06.128Z,4.9
2022-10-04T23:24:07.555Z,9.8
2022-10-04T23:32:16.564Z,27.4
2022-10-04T23:34:17.989Z,9.2
2022-10-04T23:36:19.386Z,7.5
2022-10-04T23:38:20.814Z,6.2
2022-10-04T23:42:23.656Z,4.6
2022-10-04T23:44:25.095Z,6.3
2022-10-04T23:46:29.811Z,6.9
2022-10-04T23:48:31.210Z,5.2
2022-10-04T23:50:32.647Z,10.9
2022-10-04T23:52:34.042Z,5.7
2022-10-04T23:54:35.479Z,10.1
2022-10-04T23:56:36.861Z,7.3
